Time;durP1;ratioP1;P1;durP2;ratioP2;P2;SDS_P1;SDS_P2;PMS_P1;PMS_P2;Temp;Humidity;BMP_temperature;BMP_pressure;BME280_temperature;BME280_humidity;BME280_pressure;Samples;Min_cycle;Max_cycle;Signal;HPM_P1;HPM_P2
2023/03/18 00:02:49;;;;;;;10.93;6.03;;;;;;;22.21;37.44;100161.63;21084685;28;20109;-67
2023/03/18 00:12:52;;;;;;;13.13;6.35;;;;;;;22.19;37.58;100175.88;21083427;28;20040;-66
2023/03/18 00:22:57;;;;;;;13.38;6.20;;;;;;;22.16;37.34;100175.66;21078934;28;20039;-67
2023/03/18 00:32:59;;;;;;;9.90;6.57;;;;;;;22.11;37.34;100162.59;21080874;28;20048;-67
2023/03/18 00:43:06;;;;;;;14.23;6.68;;;;;;;21.93;37.27;100160.72;21081137;28;20109;-67
2023/03/18 00:53:08;;;;;;;9.73;5.63;;;;;;;22.06;37.08;100168.28;21077098;28;20097;-66
2023/03/18 01:03:09;;;;;;;9.25;5.90;;;;;;;22.07;37.33;100175.50;21079876;28;20044;-66
2023/03/18 01:13:16;;;;;;;10.35;5.80;;;;;;;21.97;37.15;100161.75;21079057;28;20036;-69
2023/03/18 01:23:18;;;;;;;10.07;6.43;;;;;;;22.00;36.79;100155.59;21078280;28;20040;-66
2023/03/18 01:33:21;;;;;;;9.68;6.28;;;;;;;21.97;36.76;100156.19;21075608;28;20052;-67
2023/03/18 01:43:32;;;;;;;8.45;6.38;;;;;;;22.05;36.95;100163.84;21075821;28;20097;-68
2023/03/18 01:53:40;;;;;;;8.65;5.93;;;;;;;21.96;36.92;100165.69;21075872;28;20032;-68
2023/03/18 02:03:41;;;;;;;7.35;5.60;;;;;;;21.93;36.59;100163.50;21075846;28;20040;-68
2023/03/18 02:24:38;;;;;;;9.27;5.97;;;;;;;21.88;36.83;100175.56;21073974;28;20036;-68
2023/03/18 02:34:42;;;;;;;7.20;5.68;;;;;;;21.64;36.41;100139.50;21074527;28;20040;-68
2023/03/18 02:44:45;;;;;;;8.27;6.03;;;;;;;21.88;36.66;100169.19;21073754;28;20044;-66
2023/03/18 02:54:47;;;;;;;6.78;5.82;;;;;;;21.83;36.44;100157.00;21075686;28;20044;-66
2023/03/18 03:04:48;;;;;;;9.40;6.40;;;;;;;21.89;36.53;100184.75;21088982;28;20036;-66
2023/03/18 03:14:50;;;;;;;6.45;5.63;;;;;;;21.89;36.56;100182.78;21088453;28;20044;-67
2023/03/18 03:24:52;;;;;;;6.53;5.63;;;;;;;21.74;36.29;100150.47;21072684;28;20444;-67
2023/03/18 03:34:54;;;;;;;11.00;6.35;;;;;;;21.83;36.48;100167.31;21072282;28;20437;-66
2023/03/18 03:44:55;;;;;;;8.60;6.63;;;;;;;21.81;36.65;100164.84;21074739;28;20039;-71
2023/03/18 03:54:57;;;;;;;9.75;6.28;;;;;;;21.55;36.74;100119.06;21067887;28;20101;-70
2023/03/18 04:04:59;;;;;;;7.88;5.82;;;;;;;21.75;36.95;100170.78;21072480;28;20093;-69
2023/03/18 04:15:00;;;;;;;13.55;5.90;;;;;;;21.86;36.47;100177.84;21071556;28;20044;-72
2023/03/18 04:25:02;;;;;;;7.72;5.63;;;;;;;21.93;36.64;100155.16;21068388;28;20044;-73
2023/03/18 04:35:04;;;;;;;16.23;6.45;;;;;;;21.89;36.68;100159.69;21067299;28;20184;-72
2023/03/18 04:45:06;;;;;;;10.88;6.03;;;;;;;21.90;36.48;100191.97;21062446;28;20491;-72
2023/03/18 04:55:09;;;;;;;12.48;6.32;;;;;;;22.06;36.32;100212.84;21065524;28;20449;-72
2023/03/18 05:05:11;;;;;;;10.38;6.22;;;;;;;22.12;36.67;100214.44;21068340;28;20048;-72
2023/03/18 05:15:13;;;;;;;10.38;6.28;;;;;;;22.18;36.59;100246.69;21068028;28;20048;-72
2023/03/18 05:25:14;;;;;;;11.10;5.55;;;;;;;22.23;36.39;100256.91;21075083;28;20055;-72
2023/03/18 05:35:16;;;;;;;9.82;5.40;;;;;;;22.29;36.85;100276.00;21076287;28;20093;-72
2023/03/18 05:45:24;;;;;;;8.13;5.43;;;;;;;22.25;36.46;100283.31;21076688;28;20048;-72
2023/03/18 05:55:27;;;;;;;5.90;5.00;;;;;;;22.39;36.64;100310.41;21067329;28;20069;-71
2023/03/18 06:05:29;;;;;;;8.45;5.35;;;;;;;22.44;36.74;100307.53;21059756;28;20097;-71
2023/03/18 06:15:32;;;;;;;8.02;5.93;;;;;;;22.50;36.85;100303.53;21062244;28;20488;-72
2023/03/18 06:25:33;;;;;;;6.40;5.65;;;;;;;22.53;36.68;100330.78;21067154;28;20032;-72
2023/03/18 06:35:35;;;;;;;7.47;5.43;;;;;;;22.57;36.87;100360.53;21076842;28;20548;-72
2023/03/18 06:45:37;;;;;;;7.90;5.43;;;;;;;22.35;37.23;100335.25;21064376;28;20052;-72
2023/03/18 06:55:38;;;;;;;9.95;5.15;;;;;;;22.03;37.09;100289.50;21076073;28;20047;-72
2023/03/18 07:05:41;;;;;;;5.57;4.78;;;;;;;22.64;37.22;100398.38;21067249;28;20032;-70
2023/03/18 07:15:45;;;;;;;5.65;4.55;;;;;;;22.61;37.24;100402.56;21072178;28;20039;-72
2023/03/18 07:25:46;;;;;;;6.07;4.93;;;;;;;22.47;37.52;100393.34;21072039;28;20062;-72
2023/03/18 07:35:48;;;;;;;6.30;4.45;;;;;;;22.63;37.54;100419.81;21064061;28;20055;-71
2023/03/18 07:45:50;;;;;;;6.22;4.50;;;;;;;22.64;37.55;100427.06;21069204;28;20453;-72
2023/03/18 07:55:54;;;;;;;5.03;4.47;;;;;;;22.53;37.45;100398.53;21068227;28;20377;-72
2023/03/18 08:05:56;;;;;;;4.63;4.20;;;;;;;22.65;37.51;100444.63;21075049;28;20052;-70
2023/03/18 08:16:00;;;;;;;5.20;3.85;;;;;;;22.65;37.44;100461.38;21076255;28;20043;-72
2023/03/18 08:26:01;;;;;;;4.40;4.00;;;;;;;22.64;37.65;100446.59;21070829;28;20036;-73
2023/03/18 08:36:07;;;;;;;5.43;3.70;;;;;;;22.63;37.70;100444.09;21073557;28;20538;-72
2023/03/18 08:46:11;;;;;;;4.15;3.75;;;;;;;22.36;37.43;100395.47;21072546;28;20051;-71
2023/03/18 08:56:15;;;;;;;4.72;3.30;;;;;;;22.61;37.35;100483.44;21063034;28;20044;-71
2023/03/18 09:06:17;;;;;;;4.47;3.42;;;;;;;22.62;37.60;100523.31;21072210;28;20105;-71
2023/03/18 09:16:18;;;;;;;3.90;3.47;;;;;;;22.60;37.18;100514.44;21069378;28;20032;-71
2023/03/18 09:26:20;;;;;;;5.07;3.30;;;;;;;22.36;37.25;100498.63;21070003;28;20082;-72
2023/03/18 09:36:22;;;;;;;3.72;3.20;;;;;;;22.58;37.36;100537.03;21073525;28;20560;-72
2023/03/18 09:46:45;;;;;;;3.72;3.40;;;;;;;22.52;37.51;100546.63;21063691;28;21290;-71
2023/03/18 09:56:47;;;;;;;2.70;2.47;;;;;;;22.54;37.17;100538.75;21062299;28;20480;-72
2023/03/18 10:06:55;;;;;;;3.03;2.70;;;;;;;22.52;37.49;100553.00;21071766;28;20043;-71
2023/03/18 10:17:15;;;;;;;3.08;2.78;;;;;;;22.46;37.02;100581.28;21094832;28;20044;-71
2023/03/18 10:27:26;;;;;;;2.20;2.00;;;;;;;22.52;36.47;100624.69;21096222;28;20048;-71
2023/03/18 10:37:51;;;;;;;2.30;2.10;;;;;;;22.57;35.98;100621.81;21092587;28;20043;-70
2023/03/18 10:48:09;;;;;;;1.67;1.55;;;;;;;22.57;36.08;100658.09;21077702;28;20060;-71
2023/03/18 10:58:16;;;;;;;1.95;1.83;;;;;;;22.65;35.87;100637.91;21083980;28;20032;-71
2023/03/18 11:08:46;;;;;;;1.55;1.42;;;;;;;22.64;36.17;100639.03;21090382;28;20032;-70
2023/03/18 11:18:50;;;;;;;1.40;1.30;;;;;;;22.75;35.62;100643.31;21081120;28;20036;-70
2023/03/18 11:29:21;;;;;;;1.42;1.20;;;;;;;22.73;35.91;100684.66;21073972;28;20385;-72
2023/03/18 11:39:23;;;;;;;1.55;1.30;;;;;;;22.84;35.43;100694.53;21074764;28;20560;-72
2023/03/18 11:49:27;;;;;;;1.23;1.10;;;;;;;22.88;35.45;100730.22;21077542;28;20552;-72
2023/03/18 11:59:47;;;;;;;1.70;1.38;;;;;;;22.84;35.57;100747.53;21082211;28;20035;-72
2023/03/18 12:10:11;;;;;;;1.02;0.93;;;;;;;22.87;35.48;100773.19;21072795;28;20051;-72
2023/03/18 12:20:43;;;;;;;1.40;1.30;;;;;;;22.88;35.56;100760.91;21063316;28;20086;-71
2023/03/18 12:31:23;;;;;;;1.20;1.10;;;;;;;22.89;35.55;100771.78;21070508;28;20557;-71
2023/03/18 12:41:30;;;;;;;;;;;;;;;22.97;35.54;100776.72;21065324;28;20395;-71
2023/03/18 12:51:56;;;;;;;1.45;1.25;;;;;;;22.98;35.52;100771.97;21072188;28;20291;-71
2023/03/18 13:02:37;;;;;;;1.60;0.90;;;;;;;22.76;35.37;100737.03;21073086;28;20055;-71
2023/03/18 13:12:42;;;;;;;1.23;1.13;;;;;;;22.82;35.57;100740.63;21067564;28;20036;-71
2023/03/18 13:22:45;;;;;;;1.25;1.15;;;;;;;22.95;35.46;100766.97;21064815;28;20020;-72
2023/03/18 13:33:09;;;;;;;1.83;0.90;;;;;;;22.95;35.69;100772.53;21052536;28;20045;-72
2023/03/18 13:43:17;;;;;;;4.20;1.08;;;;;;;22.97;35.44;100779.50;21062288;28;20314;-75
2023/03/18 13:53:37;;;;;;;7.53;1.20;;;;;;;22.82;35.18;100758.19;21076633;28;20073;-74
2023/03/18 14:03:41;;;;;;;2.05;1.23;;;;;;;22.94;34.68;100770.88;21077867;28;20020;-73
2023/03/18 14:13:44;;;;;;;1.63;0.90;;;;;;;22.88;34.78;100777.66;21077979;28;20044;-72
2023/03/18 14:24:03;;;;;;;1.17;1.08;;;;;;;22.89;34.79;100785.75;21058426;28;20032;-73
2023/03/18 14:34:32;;;;;;;4.70;0.98;;;;;;;22.83;35.21;100776.56;21069847;28;20044;-73
2023/03/18 14:44:46;;;;;;;7.87;1.10;;;;;;;22.70;35.19;100718.72;21062264;28;20572;-73
2023/03/18 14:54:51;;;;;;;2.50;0.80;;;;;;;23.02;34.97;100761.84;21079479;28;20101;-72
2023/03/18 15:04:58;;;;;;;5.45;1.08;;;;;;;22.90;34.62;100753.91;21083916;28;20553;-73
2023/03/18 15:14:59;;;;;;;2.70;0.90;;;;;;;23.05;34.92;100772.44;21078948;28;20097;-74
2023/03/18 15:25:03;;;;;;;1.98;0.90;;;;;;;23.05;34.64;100790.00;21080906;28;20568;-72
2023/03/18 15:35:23;;;;;;;2.42;0.75;;;;;;;22.94;34.98;100760.56;21066951;28;20430;-72
2023/03/18 15:45:28;;;;;;;1.60;0.88;;;;;;;23.09;35.08;100784.63;21058175;28;20125;-70
2023/03/18 15:55:46;;;;;;;4.10;0.63;;;;;;;23.11;34.91;100764.81;21041048;28;20048;-70
2023/03/18 16:05:48;;;;;;;0.77;0.70;;;;;;;23.05;34.80;100773.25;21071573;28;20048;-74
2023/03/18 16:15:49;;;;;;;1.13;0.80;;;;;;;22.10;34.63;100609.59;21079671;28;20070;-74
2023/03/18 16:25:53;;;;;;;1.80;0.90;;;;;;;22.96;34.60;100730.41;21076586;28;20028;-72
2023/03/18 16:36:00;;;;;;;1.45;0.82;;;;;;;23.05;34.64;100741.72;21081227;28;20044;-72
2023/03/18 16:46:05;;;;;;;3.05;0.80;;;;;;;23.07;34.67;100753.41;21073803;28;20357;-74
2023/03/18 16:56:17;;;;;;;0.90;0.80;;;;;;;23.05;34.86;100738.94;21067103;28;20752;-71
2023/03/18 17:06:21;;;;;;;0.70;0.70;;;;;;;23.12;34.84;100707.84;21063977;28;20101;-69
2023/03/18 17:16:26;;;;;;;0.77;0.63;;;;;;;23.08;35.09;100710.41;21064124;28;20462;-71
2023/03/18 17:26:28;;;;;;;4.07;0.80;;;;;;;23.01;34.71;100671.72;21052194;28;20074;-76
2023/03/18 17:36:43;;;;;;;1.88;0.73;;;;;;;23.14;35.18;100669.28;21076303;28;20101;-76
2023/03/18 17:46:44;;;;;;;4.35;1.17;;;;;;;23.16;34.14;100634.38;21077410;28;20035;-76
2023/03/18 17:56:47;;;;;;;2.78;0.90;;;;;;;23.11;34.27;100637.25;21075638;28;20040;-76
2023/03/18 18:06:48;;;;;;;2.83;0.70;;;;;;;23.10;33.96;100624.44;21076747;28;20098;-76
2023/03/18 18:16:54;;;;;;;2.55;0.70;;;;;;;22.96;34.64;100576.09;21075184;28;20051;-76
2023/03/18 18:26:59;;;;;;;1.33;0.80;;;;;;;23.10;33.89;100568.63;21081339;28;20101;-76
2023/03/18 18:37:01;;;;;;;3.05;1.10;;;;;;;23.40;34.01;100583.16;21092501;28;20032;-76
2023/03/18 18:47:02;;;;;;;1.45;0.95;;;;;;;23.48;34.03;100571.31;21092900;28;20082;-75
2023/03/18 18:57:04;;;;;;;2.17;1.10;;;;;;;23.50;34.16;100555.06;21091396;28;20408;-76
2023/03/18 19:07:05;;;;;;;1.33;1.08;;;;;;;23.46;33.95;100543.69;21090201;28;20097;-76
2023/03/18 19:17:25;;;;;;;1.02;0.90;;;;;;;23.60;34.23;100563.25;21081368;28;20066;-77
2023/03/18 19:27:31;;;;;;;9.05;0.95;;;;;;;23.62;33.64;100551.78;21032111;28;20045;-77
2023/03/18 19:37:33;;;;;;;1.85;1.00;;;;;;;23.74;33.70;100578.09;21041325;28;20031;-75
2023/03/18 19:47:35;;;;;;;1.27;0.90;;;;;;;23.77;33.26;100576.63;21072696;28;20044;-76
2023/03/18 19:57:37;;;;;;;1.20;0.70;;;;;;;23.81;33.10;100560.91;21074953;28;20166;-75
2023/03/18 20:07:38;;;;;;;3.22;0.90;;;;;;;23.67;32.91;100532.16;21085858;28;20623;-74
2023/03/18 20:17:44;;;;;;;1.33;0.88;;;;;;;23.67;32.98;100555.31;21082875;28;20036;-75
2023/03/18 20:27:46;;;;;;;2.20;0.85;;;;;;;23.81;33.01;100584.09;21083478;28;20035;-79
2023/03/18 20:37:48;;;;;;;0.73;0.60;;;;;;;23.88;33.08;100605.22;21081949;28;20493;-77
2023/03/18 20:47:49;;;;;;;1.05;0.93;;;;;;;23.73;33.36;100568.06;21081661;28;20113;-75
2023/03/18 20:57:52;;;;;;;1.08;0.98;;;;;;;23.74;33.12;100575.31;21079733;28;20044;-76
2023/03/18 21:07:53;;;;;;;1.00;0.85;;;;;;;23.80;32.81;100606.75;21076728;28;20109;-75
2023/03/18 21:17:58;;;;;;;1.27;0.90;;;;;;;22.96;33.22;100501.59;21074846;28;20093;-76
2023/03/18 21:27:59;;;;;;;1.33;0.75;;;;;;;23.60;32.26;100613.53;21075823;28;20479;-76
2023/03/18 21:38:01;;;;;;;1.08;0.80;;;;;;;23.88;32.25;100673.13;21077471;28;20031;-75
2023/03/18 21:48:02;;;;;;;2.35;0.75;;;;;;;23.85;31.84;100684.91;21076729;28;20529;-76
2023/03/18 21:58:04;;;;;;;1.35;0.65;;;;;;;23.94;31.81;100687.81;21077223;28;20437;-75
2023/03/18 22:08:06;;;;;;;3.05;1.05;;;;;;;23.93;31.98;100687.00;21075709;28;20028;-76
2023/03/18 22:18:07;;;;;;;1.50;1.00;;;;;;;23.92;32.14;100699.31;21075791;28;20098;-76
2023/03/18 22:28:12;;;;;;;1.90;0.85;;;;;;;23.92;31.62;100718.06;21075663;28;20032;-76
2023/03/18 22:38:19;;;;;;;0.95;0.85;;;;;;;23.88;31.61;100722.59;21075364;28;20032;-76
2023/03/18 22:48:20;;;;;;;0.95;0.70;;;;;;;23.88;31.21;100739.38;21075260;28;20044;-76
2023/03/18 22:58:27;;;;;;;1.85;0.85;;;;;;;23.82;31.38;100753.44;21074346;28;20048;-76
2023/03/18 23:08:29;;;;;;;1.25;0.80;;;;;;;23.68;31.16;100729.34;21073642;28;20036;-76
2023/03/18 23:18:31;;;;;;;2.85;1.30;;;;;;;23.59;31.10;100731.97;21085220;28;20024;-76
2023/03/18 23:28:32;;;;;;;1.63;0.90;;;;;;;23.69;31.30;100743.03;21067663;28;20059;-73
2023/03/18 23:38:34;;;;;;;3.03;1.10;;;;;;;23.48;31.05;100722.94;21077955;28;20561;-73
2023/03/18 23:48:35;;;;;;;0.80;0.70;;;;;;;23.55;31.42;100764.47;21081758;28;20043;-73
2023/03/18 23:58:39;;;;;;;1.40;1.13;;;;;;;23.45;30.96;100761.81;21078666;28;20371;-73
